TAF and METAR

METAR for Nawabshah Airport

OPNH 192100Z 00000KT 4000 FU NSC 23/19 Q1015 NOSIG
Report created 19. okt 23:00
wind 0 knots from N (000°) visibility 4000 meters smoke No significant clouds. Temperature 23° with dewpoint at 19° (Humidity 78.24%) Pressure 1015 hPa no significant weather change expected the next couple of hours

TAF for Nawabshah Airport

TAF OPNH 191600Z 1918/2024 03005KT 4000 HZ NSC TEMPO 2000/2004 35005KT 3000 FU NSC FM 200600Z 05008KT 5000 HZ NSC BECMG 2019/2021 22005KT 4000 HZ NSC
Report created 19. okt 18:00

between 19. okt 20:00 - 20. okt 02:00

wind 5 knots from NNE (030°) visibility 4000 meters haze No significant clouds.

temporarily between 20. okt 02:00 - 20. okt 06:00

wind 5 knots from N (350°) visibility 3000 meters smoke No significant clouds.

From 20. okt 08:00